createdAt,value
2019-04-14T00:00:53.975Z,99.99
2019-04-14T00:01:54.492Z,99.99
2019-04-14T00:02:53.952Z,99.99
2019-04-14T00:03:54.350Z,99.99
2019-04-14T00:04:55.041Z,99.99
2019-04-14T00:05:53.977Z,99.99
2019-04-14T00:06:54.765Z,99.99
2019-04-14T00:07:53.896Z,99.99
2019-04-14T00:08:54.334Z,99.99
2019-04-14T00:09:54.198Z,99.99
2019-04-14T00:10:55.000Z,99.99
2019-04-14T00:11:54.793Z,99.99
2019-04-14T00:12:53.841Z,99.99
2019-04-14T00:13:54.535Z,99.99
2019-04-14T00:14:53.822Z,99.99
2019-04-14T00:15:54.964Z,99.99
2019-04-14T00:16:53.798Z,99.99
2019-04-14T00:17:54.587Z,99.99
2019-04-14T00:18:53.777Z,99.99
2019-04-14T00:19:54.455Z,99.99
2019-04-14T00:20:53.755Z,99.99
2019-04-14T00:21:54.431Z,99.99
2019-04-14T00:22:53.737Z,99.99
2019-04-14T00:23:54.456Z,99.99
2019-04-14T00:24:53.716Z,99.99
2019-04-14T00:25:54.437Z,99.99
2019-04-14T00:26:53.689Z,99.99
2019-04-14T00:27:54.337Z,99.99
2019-04-14T00:28:53.666Z,99.99
2019-04-14T00:29:54.586Z,99.99
2019-04-14T00:30:53.645Z,99.99
2019-04-14T00:31:55.061Z,99.99
2019-04-14T00:32:53.628Z,99.99
2019-04-14T00:33:54.281Z,99.99
2019-04-14T00:34:54.886Z,99.99
2019-04-14T00:35:53.848Z,99.99
2019-04-14T00:36:54.548Z,99.99
2019-04-14T00:37:53.566Z,99.99
2019-04-14T00:38:54.290Z,99.99
2019-04-14T00:39:53.545Z,99.99
2019-04-14T00:40:53.990Z,99.99
2019-04-14T00:41:56.988Z,99.99
2019-04-14T00:42:53.825Z,99.99
2019-04-14T00:43:53.509Z,99.99
2019-04-14T00:44:53.833Z,99.99
2019-04-14T00:45:56.426Z,99.99
2019-04-14T00:46:53.866Z,99.99
2019-04-14T00:48:01.082Z,99.99
2019-04-14T00:48:53.943Z,99.99
2019-04-14T00:49:53.432Z,99.99
2019-04-14T00:50:53.941Z,99.99
2019-04-14T00:51:53.454Z,99.99
2019-04-14T00:52:54.427Z,99.99
2019-04-14T00:53:53.595Z,99.99
2019-04-14T00:54:54.335Z,99.99
2019-04-14T00:55:53.412Z,99.99
2019-04-14T00:56:54.165Z,99.99
2019-04-14T00:57:53.345Z,99.99
2019-04-14T00:58:53.961Z,99.99
2019-04-14T00:59:53.323Z,99.99
2019-04-14T01:00:53.779Z,99.99
2019-04-14T01:01:53.299Z,99.99
2019-04-14T01:02:53.713Z,99.99
2019-04-14T01:03:53.279Z,99.99
2019-04-14T01:04:53.479Z,99.99
2019-04-14T01:05:53.253Z,99.99
2019-04-14T01:06:53.388Z,99.99
2019-04-14T01:07:54.348Z,99.99
2019-04-14T01:08:53.405Z,99.99
2019-04-14T01:09:53.245Z,99.99
2019-04-14T01:10:54.026Z,99.99
2019-04-14T01:11:53.201Z,99.99
2019-04-14T01:12:53.917Z,99.99
2019-04-14T01:13:53.162Z,99.99
2019-04-14T01:14:53.911Z,99.99
2019-04-14T01:16:01.878Z,99.99
2019-04-14T01:16:53.832Z,99.99
2019-04-14T01:17:53.116Z,99.99
2019-04-14T01:18:53.745Z,99.99
2019-04-14T01:19:53.094Z,99.99
2019-04-14T01:20:53.607Z,99.99
2019-04-14T01:21:53.075Z,99.99
2019-04-14T01:22:53.216Z,99.99
2019-04-14T01:23:53.052Z,99.99
2019-04-14T01:24:53.291Z,99.99
2019-04-14T01:25:54.092Z,99.99
2019-04-14T01:26:53.016Z,99.99
2019-04-14T01:27:53.815Z,99.99
2019-04-14T01:28:52.994Z,99.99
2019-04-14T01:29:53.810Z,99.99
2019-04-14T01:30:52.970Z,99.99
2019-04-14T01:31:53.648Z,99.99
2019-04-14T01:32:52.951Z,99.99
2019-04-14T01:33:53.374Z,99.99
2019-04-14T01:34:54.326Z,99.99
2019-04-14T01:35:53.150Z,99.99
2019-04-14T01:36:53.925Z,99.99
2019-04-14T01:37:52.969Z,99.99
2019-04-14T01:38:53.634Z,99.99
2019-04-14T01:39:52.872Z,99.99
2019-04-14T01:40:53.163Z,99.99
2019-04-14T01:41:52.854Z,99.99
2019-04-14T01:42:52.842Z,99.99
2019-04-14T01:43:53.875Z,99.99
2019-04-14T01:44:52.811Z,99.99
2019-04-14T01:46:03.995Z,99.99
2019-04-14T01:46:52.786Z,99.99
2019-04-14T01:47:53.335Z,99.99
2019-04-14T01:48:53.994Z,99.99
2019-04-14T01:49:53.056Z,99.99
2019-04-14T01:50:53.644Z,99.99
2019-04-14T01:51:52.909Z,99.99
2019-04-14T01:52:52.729Z,99.99
2019-04-14T01:53:53.158Z,99.99
2019-04-14T01:54:53.783Z,99.99
2019-04-14T01:55:52.782Z,99.99
2019-04-14T01:56:53.645Z,99.99
2019-04-14T01:57:52.668Z,99.99
2019-04-14T01:58:53.427Z,99.99
2019-04-14T01:59:52.646Z,99.99
2019-04-14T02:00:53.092Z,99.99
2019-04-14T02:01:52.625Z,99.99
2019-04-14T02:02:53.091Z,99.99
2019-04-14T02:03:52.602Z,99.99
2019-04-14T02:04:52.916Z,99.99
2019-04-14T02:05:53.846Z,99.99
2019-04-14T02:06:52.766Z,99.99
2019-04-14T02:07:53.668Z,99.99
2019-04-14T02:08:52.545Z,99.99
2019-04-14T02:09:53.301Z,99.99
2019-04-14T02:10:52.524Z,99.99
2019-04-14T02:11:53.104Z,99.99
2019-04-14T02:12:52.502Z,99.99
2019-04-14T02:13:52.901Z,99.99
2019-04-14T02:14:52.477Z,99.99
2019-04-14T02:15:52.827Z,99.99
2019-04-14T02:16:56.086Z,99.99
2019-04-14T02:17:52.503Z,99.99
2019-04-14T02:18:54.901Z,99.99
2019-04-14T02:19:52.496Z,99.99
2019-04-14T02:20:53.497Z,99.99
2019-04-14T02:21:52.403Z,99.99
2019-04-14T02:22:53.158Z,99.99
2019-04-14T02:23:52.377Z,99.99
2019-04-14T02:24:52.854Z,99.99
2019-04-14T02:25:53.519Z,99.99
2019-04-14T02:26:52.621Z,99.99
2019-04-14T02:27:53.573Z,99.99
2019-04-14T02:28:52.818Z,99.99
2019-04-14T02:29:52.317Z,99.99
2019-04-14T02:31:08.254Z,99.99
2019-04-14T02:32:25.260Z,99.99
2019-04-14T02:33:23.677Z,99.99
2019-04-14T02:34:32.075Z,99.99
2019-04-14T02:36:22.101Z,99.99
2019-04-14T02:37:19.212Z,99.99
2019-04-14T02:38:36.054Z,99.99
2019-04-14T02:39:22.338Z,99.99
2019-04-14T02:40:27.370Z,99.99
2019-04-14T02:41:29.994Z,99.99
2019-04-14T02:42:26.160Z,99.99
2019-04-14T02:43:23.894Z,99.99
2019-04-14T02:44:22.936Z,99.99
2019-04-14T02:45:33.193Z,99.99
2019-04-14T02:47:37.064Z,99.99
2019-04-14T02:49:19.173Z,99.99
2019-04-14T02:50:17.841Z,99.99
2019-04-14T02:51:19.375Z,99.99
2019-04-14T02:52:22.294Z,99.99
2019-04-14T02:53:30.837Z,99.99
2019-04-14T02:54:23.164Z,99.99
2019-04-14T02:55:15.582Z,99.99
2019-04-14T02:56:21.783Z,99.99
2019-04-14T02:57:26.791Z,99.99
2019-04-14T02:58:20.459Z,99.99
2019-04-14T02:59:11.377Z,99.99
2019-04-14T03:01:26.025Z,99.99
2019-04-14T03:03:21.675Z,99.99
2019-04-14T03:04:21.566Z,99.99
2019-04-14T03:05:19.327Z,99.99
2019-04-14T03:07:21.858Z,99.99
2019-04-14T03:08:25.595Z,99.99
2019-04-14T03:10:18.508Z,99.99
2019-04-14T03:11:21.101Z,99.99
2019-04-14T03:12:19.118Z,99.99
2019-04-14T03:14:23.397Z,99.99
2019-04-14T03:15:16.970Z,99.99
2019-04-14T03:16:23.385Z,99.99
2019-04-14T03:18:31.781Z,99.99
2019-04-14T03:19:14.116Z,99.99
2019-04-14T03:21:24.603Z,99.99
2019-04-14T03:23:30.838Z,99.99
2019-04-14T03:24:18.918Z,99.99
2019-04-14T03:25:06.147Z,99.99
2019-04-14T03:26:13.042Z,99.99
2019-04-14T03:27:28.496Z,99.99
2019-04-14T03:28:22.895Z,99.99
2019-04-14T03:29:16.653Z,99.99
2019-04-14T03:30:39.033Z,99.99
2019-04-14T03:31:39.363Z,99.99
2019-04-14T03:38:29.810Z,99.99
2019-04-14T03:39:17.829Z,99.99
2019-04-14T03:40:18.604Z,99.99
2019-04-14T03:41:30.162Z,99.99
2019-04-14T03:42:21.434Z,99.99
2019-04-14T03:43:18.693Z,99.99
2019-04-14T03:44:25.289Z,99.99
2019-04-14T03:47:20.079Z,99.99
2019-04-14T03:48:45.135Z,99.99
2019-04-14T03:49:14.007Z,99.99
2019-04-14T03:50:16.093Z,99.99
2019-04-14T03:51:22.122Z,99.99
2019-04-14T03:53:22.005Z,99.99
2019-04-14T03:54:12.358Z,99.99
2019-04-14T03:55:08.063Z,99.99
2019-04-14T03:55:56.635Z,99.99
2019-04-14T03:56:51.576Z,99.99
2019-04-14T03:57:51.954Z,99.99
2019-04-14T03:58:51.309Z,99.99
2019-04-14T03:59:52.134Z,99.99
2019-04-14T04:00:51.556Z,99.99
2019-04-14T04:01:52.266Z,99.99
2019-04-14T04:02:51.268Z,99.99
2019-04-14T04:03:52.139Z,99.99
2019-04-14T04:04:51.311Z,99.99
2019-04-14T04:05:52.193Z,99.99
2019-04-14T04:06:51.221Z,99.99
2019-04-14T04:07:51.789Z,99.99
2019-04-14T04:08:51.196Z,99.99
2019-04-14T04:09:51.874Z,99.99
2019-04-14T04:10:51.175Z,99.99
2019-04-14T04:11:52.008Z,99.99
2019-04-14T04:12:51.202Z,99.99
2019-04-14T04:13:52.004Z,99.99
2019-04-14T04:14:51.137Z,99.99
2019-04-14T04:15:51.987Z,99.99
2019-04-14T04:16:51.107Z,99.99
2019-04-14T04:17:51.698Z,99.99
2019-04-14T04:18:59.862Z,99.99
2019-04-14T04:19:51.419Z,99.99
2019-04-14T04:20:52.162Z,99.99
2019-04-14T04:21:51.049Z,99.99
2019-04-14T04:22:51.951Z,99.99
2019-04-14T04:23:51.170Z,99.99
2019-04-14T04:24:52.067Z,99.99
2019-04-14T04:25:51.009Z,99.99
2019-04-14T04:26:51.781Z,99.99
2019-04-14T04:27:50.982Z,99.99
2019-04-14T04:28:51.776Z,99.99
2019-04-14T04:29:50.961Z,99.99
2019-04-14T04:30:51.599Z,99.99
2019-04-14T04:31:50.938Z,99.99
2019-04-14T04:32:51.542Z,99.99
2019-04-14T04:33:50.918Z,99.99
2019-04-14T04:34:51.261Z,99.99
2019-04-14T04:35:52.117Z,99.99
2019-04-14T04:36:50.939Z,99.99
2019-04-14T04:37:51.934Z,99.99
2019-04-14T04:38:51.044Z,99.99
2019-04-14T04:39:51.794Z,99.99
2019-04-14T04:40:50.841Z,99.99
2019-04-14T04:41:51.576Z,99.99
2019-04-14T04:42:50.815Z,99.99
2019-04-14T04:43:51.727Z,99.99
2019-04-14T04:44:51.029Z,99.99
2019-04-14T04:45:51.680Z,99.99
2019-04-14T04:46:50.773Z,99.99
2019-04-14T04:47:51.308Z,99.99
2019-04-14T04:49:00.063Z,99.99
2019-04-14T04:49:51.204Z,99.99
2019-04-14T04:50:51.884Z,99.99
2019-04-14T04:51:50.883Z,99.99
2019-04-14T04:52:51.740Z,99.99
2019-04-14T04:53:50.695Z,99.99
2019-04-14T04:54:51.632Z,99.99
2019-04-14T04:55:50.675Z,99.99
2019-04-14T04:56:51.575Z,99.99
2019-04-14T04:57:50.647Z,99.99
2019-04-14T04:58:50.637Z,99.99
2019-04-14T04:59:51.669Z,99.99
2019-04-14T05:00:52.533Z,99.99
2019-04-14T05:01:51.549Z,99.99
2019-04-14T05:02:50.647Z,99.99
2019-04-14T05:03:51.404Z,99.99
2019-04-14T05:04:50.659Z,99.99
2019-04-14T05:05:51.399Z,99.99
2019-04-14T05:06:50.647Z,99.99
2019-04-14T05:07:51.203Z,99.99
2019-04-14T05:08:50.523Z,99.99
2019-04-14T05:09:51.282Z,99.99
2019-04-14T05:10:50.502Z,99.99
2019-04-14T05:11:52.626Z,99.99
2019-04-14T05:12:50.480Z,99.99
2019-04-14T05:13:51.201Z,99.99
2019-04-14T05:14:50.456Z,99.99
2019-04-14T05:15:51.061Z,99.99
2019-04-14T05:16:50.768Z,99.99
2019-04-14T05:17:51.672Z,99.99
2019-04-14T05:18:50.869Z,99.99
2019-04-14T05:19:50.402Z,99.99
2019-04-14T05:20:51.002Z,99.99
2019-04-14T05:21:51.647Z,99.99
2019-04-14T05:22:50.796Z,99.99
2019-04-14T05:23:51.612Z,99.99
2019-04-14T05:24:50.752Z,99.99
2019-04-14T05:25:51.607Z,99.99
2019-04-14T05:26:50.620Z,99.99
2019-04-14T05:27:51.524Z,99.99
2019-04-14T05:28:50.676Z,99.99
2019-04-14T05:29:51.474Z,99.99
2019-04-14T05:30:50.422Z,99.99
2019-04-14T05:31:51.169Z,99.99
2019-04-14T05:32:50.255Z,99.99
2019-04-14T05:33:51.181Z,99.99
2019-04-14T05:34:50.261Z,99.99
2019-04-14T05:35:50.943Z,99.99
2019-04-14T05:36:50.213Z,99.99
2019-04-14T05:37:50.756Z,99.99
2019-04-14T05:38:50.187Z,99.99
2019-04-14T05:39:50.495Z,99.99
2019-04-14T05:40:50.174Z,99.99
2019-04-14T05:42:00.284Z,99.99
2019-04-14T05:42:50.144Z,99.99
2019-04-14T05:43:54.965Z,99.99
2019-04-14T05:44:50.123Z,99.99
2019-04-14T05:45:50.207Z,99.99
2019-04-14T05:46:51.305Z,99.99
2019-04-14T05:47:50.226Z,99.99
2019-04-14T05:48:51.343Z,99.99
2019-04-14T05:49:53.131Z,99.99
2019-04-14T05:50:51.162Z,99.99
2019-04-14T05:51:50.237Z,99.99
2019-04-14T05:52:50.038Z,99.99
2019-04-14T05:53:50.218Z,99.99
2019-04-14T05:54:50.010Z,99.99
2019-04-14T05:55:50.384Z,99.99
2019-04-14T05:56:49.992Z,99.99
2019-04-14T05:57:50.266Z,99.99
2019-04-14T05:58:49.968Z,99.99
2019-04-14T05:59:50.526Z,99.99
2019-04-14T06:00:51.669Z,99.99
2019-04-14T06:01:50.894Z,99.99
2019-04-14T06:02:50.682Z,99.99
2019-04-14T06:03:49.917Z,99.99
2019-04-14T06:04:50.427Z,99.99
2019-04-14T06:05:49.891Z,99.99
2019-04-14T06:06:49.880Z,99.99
2019-04-14T06:07:49.871Z,99.99
2019-04-14T06:08:49.856Z,99.99
2019-04-14T06:09:49.848Z,99.99
2019-04-14T06:10:49.838Z,99.99
2019-04-14T06:11:49.828Z,99.99
2019-04-14T06:12:49.818Z,99.99
2019-04-14T06:13:49.804Z,99.99
2019-04-14T06:14:49.798Z,99.99
2019-04-14T06:15:49.784Z,99.99
2019-04-14T06:16:49.791Z,99.99
2019-04-14T06:17:49.761Z,99.99
2019-04-14T06:18:49.748Z,99.99
2019-04-14T06:19:49.743Z,99.99
2019-04-14T06:20:49.727Z,99.99
2019-04-14T06:21:49.713Z,99.99
2019-04-14T06:22:49.706Z,99.99
2019-04-14T06:23:49.695Z,99.99
2019-04-14T06:24:49.685Z,99.99
2019-04-14T06:25:49.672Z,99.99
2019-04-14T06:26:49.658Z,99.99
2019-04-14T06:27:49.649Z,99.99
2019-04-14T06:28:49.643Z,99.99
2019-04-14T06:29:49.629Z,99.99
2019-04-14T06:30:49.683Z,99.99
2019-04-14T06:31:49.605Z,99.99
2019-04-14T06:32:49.596Z,99.99
2019-04-14T06:33:49.583Z,99.99
2019-04-14T06:34:49.574Z,99.99
2019-04-14T06:35:49.565Z,99.99
2019-04-14T06:36:49.550Z,99.99
2019-04-14T06:37:49.540Z,99.99
2019-04-14T06:38:49.530Z,99.99
2019-04-14T06:39:49.521Z,99.99
2019-04-14T06:40:49.511Z,99.99
2019-04-14T06:41:49.498Z,99.99
2019-04-14T06:42:49.532Z,99.99
2019-04-14T06:43:49.481Z,99.99
2019-04-14T06:44:49.468Z,99.99
2019-04-14T06:45:49.460Z,99.99
2019-04-14T06:46:49.443Z,99.99
2019-04-14T06:47:49.432Z,99.99
2019-04-14T06:48:49.424Z,99.99
2019-04-14T06:49:49.577Z,99.99
2019-04-14T06:50:49.405Z,99.99
2019-04-14T06:51:49.390Z,99.99
2019-04-14T06:52:49.382Z,99.99
2019-04-14T06:53:49.370Z,99.99
2019-04-14T06:54:49.367Z,99.99
2019-04-14T06:55:49.350Z,99.99
2019-04-14T06:56:49.335Z,99.99
2019-04-14T06:57:49.323Z,99.99
2019-04-14T06:58:49.319Z,99.99
2019-04-14T06:59:49.307Z,99.99
2019-04-14T07:00:49.320Z,99.99
2019-04-14T07:01:49.286Z,99.99
2019-04-14T07:02:49.275Z,99.99
2019-04-14T07:03:49.260Z,99.99
2019-04-14T07:04:49.255Z,99.99
2019-04-14T07:05:49.245Z,99.99
2019-04-14T07:06:51.375Z,99.99
2019-04-14T07:07:57.072Z,99.99
2019-04-14T07:08:49.212Z,99.99
2019-04-14T07:09:49.196Z,99.99
2019-04-14T07:10:49.190Z,99.99
2019-04-14T07:11:49.176Z,99.99
2019-04-14T07:12:49.169Z,99.99
2019-04-14T07:13:49.157Z,99.99
2019-04-14T07:14:49.143Z,99.99
2019-04-14T07:15:49.137Z,99.99
2019-04-14T07:16:51.294Z,99.99
2019-04-14T07:17:49.111Z,99.99
2019-04-14T07:18:49.105Z,99.99
2019-04-14T07:20:01.060Z,99.99
2019-04-14T07:20:49.081Z,99.99
2019-04-14T07:21:49.073Z,99.99
2019-04-14T07:22:49.058Z,99.99
2019-04-14T07:23:49.051Z,99.99
2019-04-14T07:24:49.042Z,99.99
2019-04-14T07:25:49.035Z,99.99
2019-04-14T07:26:49.018Z,99.99
2019-04-14T07:27:49.006Z,99.99
2019-04-14T07:28:56.588Z,99.99
2019-04-14T07:29:48.993Z,99.99
2019-04-14T07:30:48.979Z,99.99
2019-04-14T07:31:48.969Z,99.99
2019-04-14T07:32:48.960Z,99.99
2019-04-14T07:33:48.944Z,99.99
2019-04-14T07:34:48.938Z,99.99
2019-04-14T07:35:48.930Z,99.99
2019-04-14T07:36:48.915Z,99.99
2019-04-14T07:37:48.906Z,99.99
2019-04-14T07:38:48.898Z,99.99
2019-04-14T07:39:48.886Z,99.99
2019-04-14T07:40:48.878Z,99.99
2019-04-14T07:41:48.866Z,99.99
2019-04-14T07:42:48.855Z,99.99
2019-04-14T07:43:48.846Z,99.99
2019-04-14T07:44:48.836Z,99.99
2019-04-14T07:45:48.824Z,99.99
2019-04-14T07:46:48.815Z,99.99
2019-04-14T07:47:48.811Z,99.99
2019-04-14T07:48:48.797Z,99.99
2019-04-14T07:49:48.787Z,99.99
2019-04-14T07:50:48.778Z,99.99
2019-04-14T07:51:48.766Z,99.99
2019-04-14T07:52:48.762Z,99.99
2019-04-14T07:53:48.745Z,99.99
2019-04-14T07:54:48.742Z,99.99
2019-04-14T07:55:48.725Z,99.99
2019-04-14T07:56:48.720Z,99.99
2019-04-14T07:57:48.701Z,99.99
2019-04-14T07:58:48.691Z,99.99
2019-04-14T07:59:48.683Z,99.99
2019-04-14T08:00:48.688Z,99.99
2019-04-14T08:01:48.665Z,99.99
2019-04-14T08:02:48.651Z,99.99
2019-04-14T08:03:48.655Z,99.99
2019-04-14T08:04:48.638Z,99.99
2019-04-14T08:05:48.626Z,99.99
2019-04-14T08:06:48.616Z,99.99
2019-04-14T08:07:48.603Z,99.99
2019-04-14T08:08:48.594Z,97.60
2019-04-14T08:09:48.588Z,95.51
2019-04-14T08:10:48.582Z,95.22
2019-04-14T08:11:48.569Z,95.79
2019-04-14T08:12:48.556Z,96.93
2019-04-14T08:13:48.547Z,99.11
2019-04-14T08:14:48.541Z,98.36
2019-04-14T08:15:48.530Z,96.65
2019-04-14T08:16:48.524Z,96.55
2019-04-14T08:17:48.505Z,96.08
2019-04-14T08:18:48.500Z,94.08
2019-04-14T08:19:48.489Z,92.56
2019-04-14T08:20:48.482Z,93.41
2019-04-14T08:21:48.470Z,93.70
2019-04-14T08:22:48.460Z,93.51
2019-04-14T08:23:48.476Z,94.56
2019-04-14T08:24:48.443Z,93.60
2019-04-14T08:25:48.434Z,95.12
2019-04-14T08:26:48.425Z,94.46
2019-04-14T08:27:48.411Z,93.94
2019-04-14T08:28:48.405Z,92.89
2019-04-14T08:29:48.394Z,90.70
2019-04-14T08:30:48.391Z,90.80
2019-04-14T08:31:48.375Z,88.19
2019-04-14T08:32:48.363Z,87.62
2019-04-14T08:33:48.357Z,88.52
2019-04-14T08:34:48.350Z,89.14
2019-04-14T08:35:48.337Z,88.52
2019-04-14T08:36:48.328Z,89.47
2019-04-14T08:37:48.318Z,87.38
2019-04-14T08:38:48.305Z,86.80
2019-04-14T08:39:48.299Z,86.99
2019-04-14T08:40:48.287Z,84.62
2019-04-14T08:41:48.294Z,84.33
2019-04-14T08:42:48.267Z,84.05
2019-04-14T08:43:48.258Z,84.05
2019-04-14T08:44:48.252Z,83.29
2019-04-14T08:45:48.240Z,83.67
2019-04-14T08:46:48.233Z,84.05
2019-04-14T08:47:48.220Z,84.62
2019-04-14T08:48:48.212Z,84.43
2019-04-14T08:49:48.204Z,85.95
2019-04-14T08:50:48.191Z,85.19
2019-04-14T08:51:48.183Z,85.10
2019-04-14T08:52:48.169Z,85.38
2019-04-14T08:53:48.162Z,86.52
2019-04-14T08:54:48.151Z,86.90
2019-04-14T08:55:48.145Z,85.10
2019-04-14T08:56:48.141Z,83.86
2019-04-14T08:57:48.123Z,85.95
2019-04-14T08:58:48.114Z,88.13
2019-04-14T08:59:48.172Z,88.04
2019-04-14T09:00:48.097Z,87.66
2019-04-14T09:01:48.085Z,87.76
2019-04-14T09:02:48.074Z,85.90
2019-04-14T09:03:48.068Z,84.56
2019-04-14T09:04:48.059Z,83.90
2019-04-14T09:05:48.048Z,81.58
2019-04-14T09:06:48.036Z,81.48
2019-04-14T09:07:48.032Z,81.43
2019-04-14T09:08:48.030Z,81.10
2019-04-14T09:09:48.009Z,80.76
2019-04-14T09:10:48.000Z,81.52
2019-04-14T09:11:47.992Z,82.00
2019-04-14T09:12:47.979Z,83.42
2019-04-14T09:13:47.973Z,82.48
2019-04-14T09:14:56.724Z,81.90
2019-04-14T09:15:47.954Z,80.95
2019-04-14T09:16:47.942Z,82.38
2019-04-14T09:17:47.934Z,80.29
2019-04-14T09:18:47.927Z,79.62
2019-04-14T09:19:47.915Z,78.86
2019-04-14T09:20:52.428Z,78.96
2019-04-14T09:21:47.893Z,79.24
2019-04-14T09:22:47.925Z,78.29
2019-04-14T09:23:47.876Z,77.72
2019-04-14T09:24:47.874Z,78.77
2019-04-14T09:25:47.861Z,78.86
2019-04-14T09:26:47.850Z,79.33
2019-04-14T09:27:47.839Z,80.99
2019-04-14T09:28:47.830Z,80.71
2019-04-14T09:29:47.822Z,76.90
2019-04-14T09:30:47.814Z,75.38
2019-04-14T09:31:47.802Z,73.76
2019-04-14T09:32:47.791Z,74.14
2019-04-14T09:33:47.781Z,75.76
2019-04-14T09:34:47.781Z,74.52
2019-04-14T09:35:47.768Z,74.80
2019-04-14T09:36:47.755Z,77.56
2019-04-14T09:37:47.747Z,76.90
2019-04-14T09:38:47.735Z,75.57
2019-04-14T09:39:47.729Z,75.28
2019-04-14T09:40:47.721Z,77.98
2019-04-14T09:41:47.708Z,78.56
2019-04-14T09:42:47.703Z,73.57
2019-04-14T09:43:47.690Z,71.76
2019-04-14T09:44:47.686Z,71.32
2019-04-14T09:45:47.675Z,72.17
2019-04-14T09:46:47.663Z,73.61
2019-04-14T09:47:47.654Z,71.89
2019-04-14T09:48:47.647Z,71.89
2019-04-14T09:49:47.640Z,72.08
2019-04-14T09:50:47.631Z,71.89
2019-04-14T09:51:47.622Z,70.84
2019-04-14T09:52:47.612Z,70.65
2019-04-14T09:53:47.605Z,71.42
2019-04-14T09:54:47.602Z,69.60
2019-04-14T09:55:47.586Z,69.04
2019-04-14T09:56:47.620Z,69.42
2019-04-14T09:57:47.568Z,70.47
2019-04-14T09:58:47.560Z,70.27
2019-04-14T09:59:47.556Z,70.94
2019-04-14T10:00:47.545Z,71.98
2019-04-14T10:01:47.531Z,71.83
2019-04-14T10:02:47.520Z,69.83
2019-04-14T10:03:47.513Z,69.42
2019-04-14T10:04:47.507Z,68.40
2019-04-14T10:05:47.501Z,69.32
2019-04-14T10:06:47.487Z,70.37
2019-04-14T10:07:47.482Z,70.40
2019-04-14T10:08:47.469Z,69.83
2019-04-14T10:09:47.466Z,68.98
2019-04-14T10:10:47.459Z,70.40
2019-04-14T10:11:48.926Z,68.78
2019-04-14T10:12:47.434Z,69.54
2019-04-14T10:13:47.424Z,69.39
2019-04-14T10:14:47.422Z,69.68
2019-04-14T10:15:47.415Z,68.44
2019-04-14T10:16:47.407Z,67.86
2019-04-14T10:17:47.395Z,65.48
2019-04-14T10:18:47.387Z,65.67
2019-04-14T10:19:47.410Z,65.67
2019-04-14T10:20:47.375Z,64.78
2019-04-14T10:21:47.359Z,66.34
2019-04-14T10:22:47.356Z,66.05
2019-04-14T10:23:47.346Z,64.72
2019-04-14T10:24:47.337Z,65.10
2019-04-14T10:25:47.327Z,65.58
2019-04-14T10:26:47.317Z,63.92
2019-04-14T10:27:47.314Z,63.17
2019-04-14T10:28:47.307Z,64.21
2019-04-14T10:29:47.294Z,65.07
2019-04-14T10:30:47.287Z,64.50
2019-04-14T10:31:47.278Z,64.40
2019-04-14T10:32:47.269Z,64.40
2019-04-14T10:33:47.258Z,66.15
2019-04-14T10:34:47.256Z,64.15
2019-04-14T10:35:47.246Z,63.20
2019-04-14T10:36:47.240Z,63.20
2019-04-14T10:37:47.231Z,63.57
2019-04-14T10:38:47.220Z,62.34
2019-04-14T10:39:47.216Z,63.76
2019-04-14T10:40:47.206Z,65.00
2019-04-14T10:41:47.194Z,64.24
2019-04-14T10:42:47.196Z,63.10
2019-04-14T10:43:47.194Z,63.13
2019-04-14T10:44:47.171Z,62.05
2019-04-14T10:45:47.168Z,61.41
2019-04-14T10:46:47.154Z,62.08
2019-04-14T10:47:47.152Z,62.18
2019-04-14T10:48:47.145Z,61.51
2019-04-14T10:49:47.136Z,62.46
2019-04-14T10:50:47.125Z,61.89
2019-04-14T10:51:47.119Z,60.94
2019-04-14T10:52:47.111Z,61.22
2019-04-14T10:53:47.106Z,62.59
2019-04-14T10:54:47.105Z,61.07
2019-04-14T10:55:47.090Z,59.41
2019-04-14T10:56:47.080Z,59.03
2019-04-14T10:57:47.077Z,58.94
2019-04-14T10:58:47.069Z,59.51
2019-04-14T10:59:47.059Z,58.94
2019-04-14T11:00:47.053Z,58.94
2019-04-14T11:01:47.044Z,60.27
2019-04-14T11:02:47.038Z,62.11
2019-04-14T11:03:47.029Z,62.59
2019-04-14T11:04:47.052Z,62.24
2019-04-14T11:05:47.017Z,58.99
2019-04-14T11:06:47.009Z,58.99
2019-04-14T11:07:47.003Z,60.61
2019-04-14T11:08:46.997Z,58.04
2019-04-14T11:09:46.990Z,57.09
2019-04-14T11:10:46.978Z,56.89
2019-04-14T11:11:46.973Z,56.77
2019-04-14T11:12:46.968Z,57.63
2019-04-14T11:13:46.969Z,57.72
2019-04-14T11:14:46.952Z,57.72
2019-04-14T11:15:46.942Z,57.53
2019-04-14T11:16:46.939Z,56.38
2019-04-14T11:17:46.931Z,56.67
2019-04-14T11:18:46.924Z,55.62
2019-04-14T11:19:46.916Z,56.20
2019-04-14T11:20:46.920Z,56.58
2019-04-14T11:21:46.939Z,58.20
2019-04-14T11:22:46.895Z,57.63
2019-04-14T11:23:46.889Z,56.20
2019-04-14T11:24:46.884Z,56.67
2019-04-14T11:25:46.875Z,57.15
2019-04-14T11:26:46.866Z,57.65
2019-04-14T11:27:46.885Z,57.46
2019-04-14T11:28:46.853Z,56.70
2019-04-14T11:29:46.842Z,56.99
2019-04-14T11:30:46.840Z,56.89
2019-04-14T11:31:46.833Z,55.75
2019-04-14T11:32:46.825Z,56.41
2019-04-14T11:33:46.815Z,56.73
2019-04-14T11:34:46.815Z,56.73
2019-04-14T11:35:46.807Z,55.96
2019-04-14T11:36:46.797Z,56.54
2019-04-14T11:37:46.794Z,55.80
2019-04-14T11:38:46.790Z,55.71
2019-04-14T11:39:46.785Z,53.99
2019-04-14T11:40:46.779Z,54.37
2019-04-14T11:41:46.773Z,55.04
2019-04-14T11:42:52.564Z,53.51
2019-04-14T11:43:46.762Z,52.17
2019-04-14T11:44:46.757Z,51.70
2019-04-14T11:45:46.759Z,52.65
2019-04-14T11:46:46.742Z,52.94
2019-04-14T11:47:46.784Z,52.15
2019-04-14T11:48:46.736Z,52.12
2019-04-14T11:49:46.729Z,54.22
2019-04-14T11:50:46.731Z,55.08
2019-04-14T11:51:55.259Z,55.58
2019-04-14T11:52:46.713Z,55.30
2019-04-14T11:53:46.712Z,53.80
2019-04-14T11:54:46.704Z,51.95
2019-04-14T11:55:46.700Z,52.43
2019-04-14T11:56:46.696Z,53.22
2019-04-14T11:57:46.686Z,53.03
2019-04-14T11:58:46.686Z,51.98
2019-04-14T11:59:46.691Z,51.91
2019-04-14T12:00:46.678Z,51.53
2019-04-14T12:01:46.670Z,51.53
2019-04-14T12:02:46.677Z,51.53
2019-04-14T12:03:46.667Z,51.05
2019-04-14T12:04:46.668Z,52.84
2019-04-14T12:05:46.691Z,53.13
2019-04-14T12:06:46.655Z,52.62
2019-04-14T12:07:46.649Z,52.53
2019-04-14T12:08:46.648Z,53.10
2019-04-14T12:09:46.640Z,52.24
2019-04-14T12:10:46.639Z,52.15
2019-04-14T12:11:46.636Z,51.95
2019-04-14T12:12:46.628Z,53.10
2019-04-14T12:13:46.626Z,54.15
2019-04-14T12:14:46.622Z,52.34
2019-04-14T12:15:46.616Z,50.62
2019-04-14T12:16:46.610Z,50.55
2019-04-14T12:17:46.614Z,51.50
2019-04-14T12:18:46.604Z,51.05
2019-04-14T12:19:46.596Z,52.39
2019-04-14T12:20:46.595Z,52.01
2019-04-14T12:21:46.595Z,51.53
2019-04-14T12:22:46.583Z,52.58
2019-04-14T12:23:46.585Z,51.62
2019-04-14T12:24:46.589Z,51.81
2019-04-14T12:25:46.573Z,50.57
2019-04-14T12:26:46.567Z,49.14
2019-04-14T12:27:46.660Z,49.71
2019-04-14T12:28:47.145Z,49.84
2019-04-14T12:29:47.846Z,50.21
2019-04-14T12:30:46.785Z,50.12
2019-04-14T12:31:46.591Z,48.59
2019-04-14T12:32:46.541Z,47.73
2019-04-14T12:33:46.532Z,48.30
2019-04-14T12:34:46.538Z,49.74
2019-04-14T12:35:46.527Z,49.64
2019-04-14T12:36:46.524Z,49.52
2019-04-14T12:37:46.515Z,50.00
2019-04-14T12:38:46.513Z,50.07
2019-04-14T12:39:46.510Z,50.62
2019-04-14T12:40:47.318Z,52.05
2019-04-14T12:41:46.513Z,52.43
2019-04-14T12:42:46.495Z,51.29
2019-04-14T12:43:46.496Z,52.15
2019-04-14T12:44:46.483Z,52.05
2019-04-14T12:45:46.474Z,53.96
2019-04-14T12:46:46.468Z,54.72
2019-04-14T12:47:46.464Z,53.49
2019-04-14T12:48:46.461Z,52.24
2019-04-14T12:49:46.453Z,53.00
2019-04-14T12:50:46.453Z,53.58
2019-04-14T12:51:46.446Z,52.62
2019-04-14T12:52:46.461Z,53.10
2019-04-14T12:53:46.433Z,53.20
2019-04-14T12:54:46.433Z,53.10
2019-04-14T12:55:46.428Z,54.15
2019-04-14T12:56:46.422Z,53.86
2019-04-14T12:57:46.414Z,53.89
2019-04-14T12:58:46.405Z,52.46
2019-04-14T12:59:46.403Z,51.91
2019-04-14T13:00:46.398Z,52.01
2019-04-14T13:01:46.392Z,52.48
2019-04-14T13:02:46.389Z,52.87
2019-04-14T13:03:46.382Z,53.08
2019-04-14T13:04:46.381Z,51.65
2019-04-14T13:05:46.370Z,51.17
2019-04-14T13:06:46.365Z,50.60
2019-04-14T13:07:46.359Z,50.02
2019-04-14T13:08:46.356Z,50.89
2019-04-14T13:09:46.347Z,49.95
2019-04-14T13:10:46.347Z,49.76
2019-04-14T13:11:46.342Z,47.73
2019-04-14T13:12:46.340Z,48.39